Tiempo atmosférico en la estación meteorológica de Montoro, Córdoba (155 m.)



Fecha
DESCASC
Temp. máxima en grados centígrados (hora)
DESCASC
Temp. mínima en grados centígrados (hora)
DESCASC
Temp. media en grados centígrados
DESCASC
Racha de viento máxima en m/sg (hora)
DESCASC
Velocidad máxima media en intervalos de 10 minutos(hora)
DESCASC
Precipitaciones diarias en mm
DESCASC
Precipitaciones de 00:00 a 06:00 en mm
DESCASC
Precipitaciones de 06:00 a 12:00 en mm
DESCASC
Precipitaciones de 12:00 a 18:00 en mm
DESCASC
Precipitaciones de 18:00 a 24:00 en mm
DESCASC
16-06-2019 32.1 (18:00) 10.9 (06:40) 21.5 6.94 (17:40) 3.89 (19:40) 0 0 0 0 0
15-06-2019 31 (18:20) 10.5 (07:00) 20.8 6.67 (01:00) 3.33 (00:30) 0 0 0 0 0
14-06-2019 26.2 (17:00) 17.4 (07:10) 21.8 11.39 (14:40) 6.39 (15:50) 0 0 0 0 0
13-06-2019 31 (17:20) 15.3 (00:00) 23.2 8.33 (16:00) 4.17 (15:30) 0 0 0 0 0
12-06-2019 30.8 (17:50) 10.9 (00:00) 20.8 8.89 (18:30) 3.89 (19:40) 0 0 0 0 0
11-06-2019 30.7 (17:10) 12 (00:00) 21.4 10.28 (15:10) 4.72 (16:20) 0 0 0 0 0
10-06-2019 30.7 (18:20) 12.2 (00:00) 21.5 11.11 (22:00) 5.28 (22:00) 0 0 0 0 0
09-06-2019 30.2 (18:10) 17.7 (00:00) 24 10.83 (15:20) 5.83 (21:20) 0 0 0 0 0
08-06-2019 32.4 (17:10) 9.2 (00:00) 20.8 8.89 (18:30) 5 (19:50) 0 0 0 0 0
07-06-2019 29 (18:50) 15.3 (00:00) 22.2 8.06 (13:50) 3.89 (07:50) 0 0 0 0 0
06-06-2019 28.7 (17:50) 10 (00:00) 19.4 10.28 (17:50) 5.56 (19:30) 0 0 0 0 0
05-06-2019 26.7 (19:00) 15.2 (00:00) 21 12.5 (14:40) 5.56 (00:10) 0 0 0 0 0
04-06-2019 33.2 (16:40) 14.1 (00:00) 23.7 11.67 (18:50) 6.11 (23:30) 0 0 0 0 0
03-06-2019 37.4 (17:40) 14.4 (00:00) 25.9 7.78 (18:40) 3.89 (17:00) 0 0 0 0 0
02-06-2019 37.1 (18:40) 12.6 (00:00) 24.8 5 (23:20) 2.78 (18:30) 0 0 0 0 0
01-06-2019 37.1 (18:00) 12.5 (00:00) 24.8 9.17 (20:30) 5 (20:20) 0 0 0 0 0
31-05-2019 35.4 (18:00) 12.5 (00:00) 24 10.83 (15:20) 4.17 (11:40) 0 0 0 0 0
30-05-2019 34.2 (17:50) 13.6 (00:00) 23.9 8.33 (21:10) 3.33 (21:20) 0 0 0 0 0
29-05-2019 32.9 (17:50) 20.2 (00:00) 26.6 9.44 (03:50) 4.17 (09:40) 0 0 0 0 0
28-05-2019 36.3 (18:30) 15.4 (00:00) 25.8 6.67 (19:40) 3.61 (17:10) 0 0 0 0 0
27-05-2019 35 (18:30) 11.8 (00:00) 23.4 8.33 (17:20) 4.44 (18:40) 0 0 0 0 0
26-05-2019 32.3 (19:00) 12.4 (00:00) 22.3 7.78 (19:10) 3.06 (14:20) 0 0 0 0 0
25-05-2019 30.3 (18:30) 13.5 (00:00) 21.9 8.89 (10:00) 4.72 (10:20) 0 0 0 0 0
24-05-2019 31.4 (18:00) 14.5 (00:00) 22.9 7.78 (21:50) 3.89 (22:00) 0 0 0 0 0
23-05-2019 33.3 (18:10) 12.4 (00:00) 22.8 7.5 (19:00) 4.17 (19:00) 0 0 0 0 0
22-05-2019 32 (17:30) 11.8 (00:00) 21.9 8.06 (18:00) 3.33 (15:30) 0 0 0 0 0

Gráficas

Temp. máximas Temp. mínimas Temp. medias Precipitaciones Rachas de viento máximas Velocidades máximas media en intervalos de 10 minutos

Datos horarios

Fecha y hora oficial Temperatura (ºC) Velocidad del viento (km/h) Dirección del viento Racha (km/h) Dirección de racha Precipitación (mm) Presión (hPa) Tendencia (hPa) Humedad (%)
2019-06-20 23:00:00 24.3 12 Oeste 26 Oeste 0 -- -- 51
2019-06-20 22:00:00 26.1 9 Sudoeste 27 Sudoeste 0 -- -- 43
2019-06-20 21:00:00 27.9 11 Sudoeste 27 Sudoeste 0 -- -- 37
2019-06-20 20:00:00 29.1 13 Sudoeste 30 Sudoeste 0 -- -- 34
2019-06-20 19:00:00 30.3 16 Sudoeste 33 Sudoeste 0 -- -- 33
2019-06-20 18:00:00 30.5 19 Sudoeste 34 Sudoeste 0 -- -- 34
2019-06-20 17:00:00 30.8 16 Oeste 32 Sudoeste 0 -- -- 35
2019-06-20 16:00:00 30.5 12 Sudoeste 28 Oeste 0 -- -- 38
2019-06-20 15:00:00 29.8 10 Oeste 27 Sudoeste 0 -- -- 41
2019-06-20 14:00:00 28.7 9 Sudoeste 22 Oeste 0 -- -- 44
2019-06-20 13:00:00 26.7 10 Oeste 20 Oeste 0 -- -- 51
2019-06-20 12:00:00 24.3 4 Norte 13 Oeste 0 -- -- 59
2019-06-20 11:00:00 22.3 6 Oeste 15 Sudoeste 0 -- -- 65
2019-06-20 10:00:00 20.7 5 Sudoeste 12 Oeste 0 -- -- 71
2019-06-20 09:00:00 19.1 5 Sudoeste 13 Oeste 0 -- -- 78
2019-06-20 08:00:00 18.6 7 Sudoeste 17 Sudoeste 0 -- -- 81
2019-06-20 07:00:00 18.4 8 Oeste 15 Sudoeste 0 -- -- 82
2019-06-20 06:00:00 18.2 9 Oeste 14 Oeste 0 -- -- 81
2019-06-20 05:00:00 17.9 4 Oeste 12 Sudoeste 0 -- -- 79
2019-06-20 04:00:00 18.8 7 Oeste 15 Sudoeste 0 -- -- 76
2019-06-20 03:00:00 19.7 6 Oeste 17 Oeste 0 -- -- 70
2019-06-20 02:00:00 20.8 9 Oeste 25 Oeste 0 -- -- 67
2019-06-20 01:00:00 22 10 Oeste 31 Oeste 0 -- -- 63
2019-06-20 00:00:00 23.7 17 Oeste 32 Sudoeste 0 -- -- 58
2019-06-19 23:00:00 25.2 6 Oeste 15 Oeste 0 -- -- 41
2019-06-19 22:00:00 26.9 4 Oeste 14 Sudoeste 0 -- -- 37
2019-06-19 21:00:00 29.3 7 Sudoeste 25 Sudoeste 0 -- -- 32
2019-06-19 20:00:00 30.7 14 Sudoeste 28 Sudoeste 0 -- -- 30
2019-06-19 19:00:00 31.3 15 Oeste 32 Sudoeste 0 -- -- 30
2019-06-19 18:00:00 31.4 14 Sudoeste 31 Sudoeste 0 -- -- 31
2019-06-19 17:00:00 31 11 Sudoeste 27 Oeste 0 -- -- 35
2019-06-19 16:00:00 29.3 9 Oeste 24 Sudoeste 0 -- -- 38
2019-06-19 15:00:00 27.1 9 Sudoeste -- -- -- -- -- 46
2019-06-19 14:00:00 -- -- -- -- -- -- -- -- --
2019-06-19 13:00:00 23.2 5 Sur 12 Sudoeste 0 -- -- 60
2019-06-19 12:00:00 21.5 4 Noroeste 9 Sudoeste 0 -- -- 69
2019-06-19 11:00:00 20.1 5 Sudoeste 10 Oeste 0 -- -- 75
2019-06-19 10:00:00 19.5 5 Sudoeste 12 Sudoeste 0 -- -- 78
2019-06-19 09:00:00 19.2 5 Sudoeste 11 Sudoeste 0 -- -- 78
2019-06-19 08:00:00 18.8 6 Sudoeste 16 Sudoeste 0 -- -- 80
2019-06-19 07:00:00 18.5 8 Sudoeste 17 Sudoeste 0 -- -- 81
2019-06-19 06:00:00 18.6 6 Sudoeste 13 Sudoeste 0 -- -- 80
2019-06-19 05:00:00 18 0 Calma 10 Oeste 0 -- -- 79
2019-06-19 04:00:00 18.8 5 Oeste 17 Oeste 0 -- -- 76
2019-06-19 03:00:00 19.5 4 Oeste 13 Sudoeste 0 -- -- 72
2019-06-19 02:00:00 20.5 4 Oeste 17 Sudoeste 0 -- -- 67
2019-06-19 01:00:00 21.5 6 Sudoeste 21 Oeste 0 -- -- 63
2019-06-19 00:00:00 22.7 11 Oeste 28 Oeste 0 -- -- 59
2019-06-18 23:00:00 23.9 15 Oeste 26 Sudoeste 0 -- -- 54
2019-06-18 22:00:00 25.2 12 Oeste 30 Sudoeste 0 -- -- 46
2019-06-18 21:00:00 27.4 14 Oeste 26 Oeste 0 -- -- 40
2019-06-18 20:00:00 29.1 17 Oeste 32 Sudoeste 0 -- -- 33
2019-06-18 19:00:00 30.6 15 Oeste 30 Oeste 0 -- -- 25
2019-06-18 18:00:00 30.9 17 Oeste 36 Oeste 0 -- -- 23
2019-06-18 17:00:00 30.5 15 Oeste 31 Oeste 0 -- -- 24
2019-06-18 16:00:00 30.1 17 Oeste 32 Oeste 0 -- -- 30
2019-06-18 15:00:00 29.4 15 Oeste 28 Oeste 0 -- -- 35
2019-06-18 14:00:00 27.5 12 Oeste 33 Sudoeste 0 -- -- 40
2019-06-18 13:00:00 25.8 15 Oeste 27 Sudoeste 0 -- -- 42
2019-06-18 12:00:00 24.4 14 Sudoeste 25 Oeste 0 -- -- 41
2019-06-18 11:00:00 23 12 Oeste 23 Oeste 0 -- -- 40
2019-06-18 10:00:00 21.1 9 Oeste 17 Sudoeste 0 -- -- 45
2019-06-18 09:00:00 19.7 10 Sudoeste 15 Oeste 0 -- -- 50
2019-06-18 08:00:00 18.6 7 Oeste 13 Oeste 0 -- -- 55
2019-06-18 07:00:00 18.1 3 Noroeste 9 Oeste 0 -- -- 61
2019-06-18 06:00:00 18.5 4 Noroeste 10 Noroeste 0 -- -- 62
2019-06-18 05:00:00 19.8 8 Noroeste 14 Oeste 0 -- -- 55
2019-06-18 04:00:00 20.7 4 Noroeste 11 Noroeste 0 -- -- 51
2019-06-18 03:00:00 21.6 4 Noroeste 19 Sudoeste 0 -- -- 48
2019-06-18 02:00:00 22.3 5 Noroeste 13 Sudoeste 0 -- -- 46
2019-06-18 01:00:00 23.2 5 Noroeste 12 Oeste 0 -- -- 45
2019-06-18 00:00:00 24.7 5 Oeste 17 Oeste 0 -- -- 39
2019-06-17 23:00:00 26 8 Oeste 22 Oeste 0 -- -- 35
2019-06-17 22:00:00 27.8 5 Oeste 15 Oeste 0 -- -- 30
2019-06-17 21:00:00 30.7 10 Oeste 24 Oeste 0 -- -- 25
2019-06-17 20:00:00 32.5 10 Oeste 27 Oeste 0 -- -- 23
2019-06-17 19:00:00 33.7 9 Oeste 25 Oeste 0 -- -- 22
2019-06-17 18:00:00 33.7 11 Noroeste 25 Sudoeste 0 -- -- 22
2019-06-17 17:00:00 33.6 14 Oeste 30 Sudoeste 0 -- -- 23
2019-06-17 16:00:00 33.1 8 Oeste 26 Sudoeste 0 -- -- 24
2019-06-17 15:00:00 32.2 6 Oeste 15 Sur 0 -- -- 26
2019-06-17 14:00:00 30.3 5 Sudeste 15 Sur 0 -- -- 28
2019-06-17 13:00:00 28.8 3 Este 12 Sudoeste 0 -- -- 32
2019-06-17 12:00:00 26.7 5 Sudeste 11 Sur 0 -- -- 35
2019-06-17 11:00:00 24.9 3 Este 8 Este 0 -- -- 42
2019-06-17 10:00:00 22 3 Este 8 Sudeste 0 -- -- 51
2019-06-17 09:00:00 18 2 Sudeste 5 Sudeste 0 -- -- 60
2019-06-17 08:00:00 14.4 0 Calma 4 Sudeste 0 -- -- 69
2019-06-17 07:00:00 13.2 2 Este 4 Sudeste 0 -- -- 78
2019-06-17 06:00:00 14.1 0 Calma 4 Oeste 0 -- -- 66
2019-06-17 05:00:00 15.3 0 Calma 7 Oeste 0 -- -- 67
2019-06-17 04:00:00 17.2 0 Calma 9 Oeste 0 -- -- 61
2019-06-17 03:00:00 19.5 6 Oeste 14 Sudoeste 0 -- -- 48
2019-06-17 02:00:00 20.9 5 Noroeste 13 Noroeste 0 -- -- 47
2019-06-17 01:00:00 22.4 7 Oeste 17 Oeste 0 -- -- 45
2019-06-17 00:00:00 22.9 7 Oeste 17 Oeste 0 -- -- 42
2019-06-16 23:00:00 22.5 6 Noroeste 9 Noroeste 0 -- -- 43
2019-06-16 22:00:00 26.1 4 Oeste 18 Oeste 0 -- -- 34
2019-06-16 21:00:00 29.1 6 Oeste 22 Oeste 0 -- -- 28
2019-06-16 20:00:00 30.8 13 Oeste 24 Oeste 0 -- -- 25
2019-06-16 19:00:00 31.8 8 Noroeste 22 Oeste 0 -- -- 25
2019-06-16 18:00:00 32.1 10 Oeste 25 Oeste 0 -- -- 22
2019-06-16 17:00:00 29.9 13 Oeste 22 Oeste 0 -- -- 28
2019-06-16 16:00:00 29.3 8 Noroeste 21 Oeste 0 -- -- 28
2019-06-16 15:00:00 29.9 8 Oeste 14 Oeste 0 -- -- 26
2019-06-16 14:00:00 28.2 5 Oeste 17 Oeste 0 -- -- 29
2019-06-16 13:00:00 27.1 3 Norte 7 Este 0 -- -- 32
2019-06-16 12:00:00 26.1 2 Este 8 Este 0 -- -- 33
2019-06-16 11:00:00 23.2 4 Sur 9 Sur 0 -- -- 37
2019-06-16 10:00:00 19.3 2 Sur 5 Sudeste 0 -- -- 48
2019-06-16 09:00:00 15.1 0 Calma 4 Sur 0 -- -- 56
2019-06-16 08:00:00 12.4 2 Sudeste 3 Sudeste 0 -- -- 64
2019-06-16 07:00:00 11 0 Calma 2 Sudeste 0 -- -- 64
2019-06-16 06:00:00 11.4 0 Calma 2 Sudeste 0 -- -- 75
2019-06-16 05:00:00 12.6 0 Calma 3 Sur 0 -- -- 79
2019-06-16 04:00:00 13.6 0 Calma 3 Norte 0 -- -- 65
2019-06-16 03:00:00 14.6 0 Calma 2 Sudeste 0 -- -- 66
2019-06-16 02:00:00 16.1 0 Calma 2 Norte 0 -- -- 64
2019-06-16 01:00:00 17.9 0 Calma 9 Sudoeste 0 -- -- 64
2019-06-16 00:00:00 18.9 3 Noroeste 7 Norte 0 -- -- 58
2019-06-15 23:00:00 20.9 0 Calma 3 Noroeste 0 -- -- 52
2019-06-15 22:00:00 24.7 4 Noroeste 10 Oeste 0 -- -- 48
2019-06-15 21:00:00 28.7 6 Oeste 12 Oeste 0 -- -- 29
2019-06-15 20:00:00 30.5 8 Oeste 20 Oeste 0 -- -- 25
2019-06-15 19:00:00 31 6 Sudoeste 17 Sudoeste 0 -- -- 23
2019-06-15 18:00:00 30.6 5 Norte 19 Sudoeste 0 -- -- 25
2019-06-15 17:00:00 29.9 6 Sudeste 16 Sudeste 0 -- -- 26
2019-06-15 16:00:00 28.5 7 Sudeste 17 Sur 0 -- -- 29
2019-06-15 15:00:00 27 7 Este 15 Sudeste 0 -- -- 30
2019-06-15 14:00:00 26.4 6 Sudeste 16 Sudeste 0 -- -- 33
2019-06-15 13:00:00 24.9 4 Este 15 Sudeste 0 -- -- 34
2019-06-15 12:00:00 23.5 4 Sudeste 12 Este 0 -- -- 37
2019-06-15 11:00:00 20.9 4 Sur 10 Este 0 -- -- 46
2019-06-15 10:00:00 18.5 2 Sudoeste 7 Sur 0 -- -- 56
2019-06-15 09:00:00 15 3 Sur 6 Sur 0 -- -- 67
2019-06-15 08:00:00 11.9 0 Calma 5 Este 0 -- -- 77
2019-06-15 07:00:00 10.5 0 Calma 3 Sudeste 0 -- -- 79
2019-06-15 06:00:00 12 0 Calma 3 Noroeste 0 -- -- 76
2019-06-15 05:00:00 13.6 2 Noroeste 8 Noroeste 0 -- -- 74
2019-06-15 04:00:00 14.6 4 Noroeste 6 Noroeste 0 -- -- 64
2019-06-15 03:00:00 15.8 4 Noroeste 14 Oeste 0 -- -- 59
2019-06-15 02:00:00 16.9 7 Oeste 23 Sudoeste 0 -- -- 55
2019-06-15 01:00:00 17.9 11 Oeste 24 Oeste 0 -- -- 53
2019-06-15 00:00:00 19.1 12 Oeste 28 Oeste 0 -- -- 50
2019-06-14 23:00:00 20.2 13 Oeste 31 Sudoeste 0 -- -- 48
2019-06-14 22:00:00 22 17 Oeste 33 Oeste 0 -- -- 41
2019-06-14 21:00:00 23.8 17 Sudoeste 30 Sudoeste 0 -- -- 36
2019-06-14 20:00:00 25.6 18 Sudoeste 36 Sudoeste 0 -- -- 31
2019-06-14 19:00:00 26 17 Sudoeste 35 Oeste 0 -- -- 29
2019-06-14 18:00:00 25.7 17 Sudoeste 41 Sudoeste 0 -- -- 30
2019-06-14 17:00:00 26.2 19 Sudoeste 37 Sudoeste 0 -- -- 29
2019-06-14 16:00:00 26.1 19 Oeste 40 Sudoeste 0 -- -- 31
2019-06-14 15:00:00 25.4 20 Oeste 41 Oeste 0 -- -- 33
2019-06-14 14:00:00 24.8 21 Sudoeste 38 Oeste 0 -- -- 35
2019-06-14 13:00:00 23.4 17 Sudoeste 41 Oeste 0 -- -- 43
2019-06-14 12:00:00 22 18 Oeste 35 Sudoeste 0 -- -- 50
2019-06-14 11:00:00 21 19 Sudoeste 33 Sudoeste 0 -- -- 54
2019-06-14 10:00:00 20 16 Oeste 37 Oeste 0 -- -- 55
2019-06-14 09:00:00 18.8 21 Oeste 35 Oeste 0 -- -- 63
2019-06-14 08:00:00 17.8 11 Oeste 19 Oeste 0 -- -- 60
2019-06-14 07:00:00 17.6 5 Oeste 10 Sudoeste 0 -- -- 58
2019-06-14 06:00:00 18.8 5 Oeste 17 Oeste 0 -- -- 53
2019-06-14 05:00:00 19.4 9 Oeste 22 Oeste 0 -- -- 51
2019-06-14 04:00:00 19.7 10 Oeste 23 Oeste 0 -- -- 48
2019-06-14 03:00:00 20.4 10 Oeste 34 Sudoeste 0 -- -- 43
2019-06-14 02:00:00 22 17 Oeste 35 Sudoeste 0 -- -- 43
2019-06-14 01:00:00 22.7 10 Sudoeste 26 Sudoeste 0 -- -- 47
2019-06-14 00:00:00 23.2 7 Sudoeste 18 Sudoeste 0 -- -- 35
2019-06-13 23:00:00 23.9 0 Calma 22 Oeste 0 -- -- 47
2019-06-13 22:00:00 25.8 9 Oeste 26 Sudoeste 0 -- -- 41
2019-06-13 21:00:00 27.2 13 Oeste 28 Oeste 0 -- -- 38
2019-06-13 20:00:00 28.9 13 Oeste 29 Oeste 0 -- -- 37
2019-06-13 19:00:00 30.6 12 Oeste 24 Oeste 0 -- -- 34
2019-06-13 18:00:00 30.5 11 Oeste 25 Sudoeste 0 -- -- 36
2019-06-13 17:00:00 30.4 10 Oeste 28 Oeste 0 -- -- 34
2019-06-13 16:00:00 29.3 8 Sur 30 Nordeste 0 -- -- 37
2019-06-13 15:00:00 28.6 6 Sudoeste 21 Sudoeste 0 -- -- 39
2019-06-13 14:00:00 28.5 6 Norte 19 Oeste 0 -- -- 39
2019-06-13 13:00:00 27.1 4 Noroeste 14 Noroeste 0 -- -- 45
2019-06-13 12:00:00 26 4 Este 13 Sudeste 0 -- -- 51
2019-06-13 11:00:00 24.1 3 Norte 8 Oeste 0 -- -- 55
2019-06-13 10:00:00 22.3 4 Nordeste 8 Este 0 -- -- 61
2019-06-13 09:00:00 19.1 3 Este 6 Sudeste 0 -- -- 67
2019-06-13 08:00:00 16.2 0 Calma 4 Este 0 -- -- 77
2019-06-13 07:00:00 15.5 0 Calma 5 Oeste 0 -- -- 75
2019-06-13 06:00:00 16.8 2 Sur 8 Oeste 0 -- -- 71
2019-06-13 05:00:00 18.2 3 Noroeste 18 Oeste 0 -- -- 66
2019-06-13 04:00:00 18.9 8 Oeste 18 Sudoeste 0 -- -- 63
2019-06-13 03:00:00 19.7 8 Oeste 15 Oeste 0 -- -- 58
2019-06-13 02:00:00 21 4 Norte 21 Oeste 0 -- -- 54
2019-06-13 01:00:00 21.7 8 Oeste 18 Oeste 0 -- -- 51
2019-06-13 00:00:00 21.4 7 Noroeste 13 Noroeste 0 -- -- 42
2019-06-12 23:00:00 21.4 0 Calma 9 Oeste 0 -- -- 49
2019-06-12 22:00:00 24.8 4 Noroeste 15 Oeste 0 -- -- 35
2019-06-12 21:00:00 28.2 6 Oeste 22 Oeste 0 -- -- 29
2019-06-12 20:00:00 29.8 13 Oeste 25 Oeste 0 -- -- 27
2019-06-12 19:00:00 30.3 9 Noroeste 32 Sudoeste 0 -- -- 28
2019-06-12 18:00:00 30.8 10 Oeste 24 Oeste 0 -- -- 28
2019-06-12 17:00:00 30.5 10 Oeste 21 Oeste 0 -- -- 29
2019-06-12 16:00:00 29.5 12 Oeste 26 Oeste 0 -- -- 32
2019-06-12 15:00:00 28.7 9 Sudoeste 22 Sudoeste 0 -- -- 33
2019-06-12 14:00:00 27.8 8 Sur 27 Oeste 0 -- -- 33
2019-06-12 13:00:00 27.2 9 Oeste 21 Oeste 0 -- -- 35
2019-06-12 12:00:00 25.5 12 Oeste 21 Oeste 0 -- -- 37
2019-06-12 11:00:00 24.1 3 Este 9 Este 0 -- -- 37
2019-06-12 10:00:00 22.1 2 Este 8 Oeste 0 -- -- 35
2019-06-12 09:00:00 17.6 0 Calma 3 Sudeste 0 -- -- 50
2019-06-12 08:00:00 12.1 2 Sur 5 Sudeste 0 -- -- 58
2019-06-12 07:00:00 11.2 2 Noroeste 5 Sur 0 -- -- 71
2019-06-12 06:00:00 11.7 0 Calma 5 Nordeste 0 -- -- 64
2019-06-12 05:00:00 13 4 Noroeste 8 Noroeste 0 -- -- 64
2019-06-12 04:00:00 14.3 2 Noroeste 8 Norte 0 -- -- 66
2019-06-12 03:00:00 15.5 5 Norte 8 Noroeste 0 -- -- 63
2019-06-12 02:00:00 16.9 4 Noroeste 6 Noroeste 0 -- -- 58
2019-06-12 01:00:00 19.6 0 Calma 13 Este 0 -- -- 42
2019-06-12 00:00:00 22.9 5 Este 22 Este 0 -- -- 34
2019-06-11 23:00:00 24 9 Nordeste 19 Este 0 -- -- 32
2019-06-11 22:00:00 25.3 8 Nordeste 22 Nordeste 0 -- -- 31
2019-06-11 21:00:00 27.8 6 Oeste 18 Noroeste 0 -- -- 21
2019-06-11 20:00:00 29.4 12 Noroeste 24 Noroeste 0 -- -- 21
2019-06-11 19:00:00 30.1 14 Oeste 29 Oeste 0 -- -- 21
2019-06-11 18:00:00 30.5 10 Oeste 26 Noroeste 0 -- -- 24
2019-06-11 17:00:00 30.3 12 Noroeste 30 Sudoeste 0 -- -- 24
2019-06-11 16:00:00 29.4 10 Noroeste 37 Sur 0 -- -- 30
2019-06-11 15:00:00 28.6 12 Sudoeste 31 Oeste 0 -- -- 31
2019-06-11 14:00:00 27.1 12 Sudoeste 21 Sudoeste 0 -- -- 33
2019-06-11 13:00:00 25.6 10 Sudoeste 26 Sudoeste 0 -- -- 35
2019-06-11 12:00:00 23.4 9 Sudoeste 19 Oeste 0 -- -- 40
2019-06-11 11:00:00 21.4 4 Sudeste 13 Sudoeste 0 -- -- 53
2019-06-11 10:00:00 19 6 Oeste 13 Sudoeste 0 -- -- 64
2019-06-11 09:00:00 17.2 7 Oeste 13 Sudoeste 0 -- -- 70
2019-06-11 08:00:00 13.4 0 Calma 2 Sudeste 0 -- -- 80
2019-06-11 07:00:00 12.3 0 Calma 3 Sur 0 -- -- 81
2019-06-11 06:00:00 13.2 0 Calma 4 Noroeste 0 -- -- 79
2019-06-11 05:00:00 14.7 3 Noroeste 5 Noroeste 0 -- -- 77
2019-06-11 04:00:00 15.8 3 Noroeste 9 Oeste 0 -- -- 71
2019-06-11 03:00:00 16.7 4 Oeste 17 Sudoeste 0 -- -- 66
2019-06-11 02:00:00 17.9 8 Oeste 21 Oeste 0 -- -- 62
2019-06-11 01:00:00 19.1 7 Oeste 31 Oeste 0 -- -- 57
2019-06-11 00:00:00 20.5 15 Oeste 40 Oeste 0 -- -- 52
2019-06-10 23:00:00 22.4 14 Oeste 32 Oeste 0 -- -- 46
2019-06-10 22:00:00 24.6 19 Sudoeste 40 Sudoeste 0 -- -- 40
2019-06-10 21:00:00 28.7 10 Noroeste 21 Oeste 0 -- -- 23
2019-06-10 20:00:00 30.1 11 Oeste 28 Sudoeste 0 -- -- 24
2019-06-10 19:00:00 30.2 17 Sudoeste 33 Sudoeste 0 -- -- 25
2019-06-10 18:00:00 30.6 17 Sudoeste 28 Sudoeste 0 -- -- 24
2019-06-10 17:00:00 30.3 8 Sudoeste 22 Sur 0 -- -- 26
2019-06-10 16:00:00 29.3 11 Oeste 30 Sudoeste 0 -- -- 27
2019-06-10 15:00:00 28.9 8 Noroeste 31 Oeste 0 -- -- 28
2019-06-10 14:00:00 27.8 7 Oeste 25 Sudoeste 0 -- -- 30
2019-06-10 13:00:00 26.2 11 Sudoeste 24 Sudoeste 0 -- -- 32
2019-06-10 12:00:00 24.8 6 Sudoeste 18 Sudoeste 0 -- -- 35
2019-06-10 11:00:00 23.1 6 Sudoeste 15 Sudoeste 0 -- -- 41
2019-06-10 10:00:00 21.1 6 Sudoeste 13 Sur 0 -- -- 46
2019-06-10 09:00:00 18.7 4 Oeste 8 Sudoeste 0 -- -- 56
2019-06-10 08:00:00 13.9 0 Calma 5 Noroeste 0 -- -- 75
2019-06-10 07:00:00 12.2 0 Calma 4 Sudeste 0 -- -- 76
2019-06-10 06:00:00 13.4 2 Noroeste 4 Noroeste 0 -- -- 74
2019-06-10 05:00:00 14.1 0 Calma 5 Noroeste 0 -- -- 65
2019-06-10 04:00:00 16.3 2 Noroeste 9 Oeste 0 -- -- 65
2019-06-10 03:00:00 17.1 0 Calma 9 Oeste 0 -- -- 60
2019-06-10 02:00:00 18.4 6 Noroeste 17 Oeste 0 -- -- 52
2019-06-10 01:00:00 19.4 5 Noroeste 22 Noroeste 0 -- -- 49
2019-06-10 00:00:00 21 9 Oeste 31 Oeste 0 -- -- 43
2019-06-09 23:00:00 22.8 12 Oeste 29 Oeste 0 -- -- 37
2019-06-09 22:00:00 24.9 15 Oeste 37 Sudoeste 0 -- -- 33
2019-06-09 21:00:00 27.8 18 Sudoeste 30 Sudoeste 0 -- -- 26
2019-06-09 20:00:00 29.3 15 Sudoeste 35 Sudoeste 0 -- -- 29
2019-06-09 19:00:00 29.9 16 Sudoeste 31 Oeste 0 -- -- 30
2019-06-09 18:00:00 29.9 18 Sudoeste 33 Sudoeste 0 -- -- 32
2019-06-09 17:00:00 29.8 15 Sudoeste 33 Oeste 0 -- -- 32
2019-06-09 16:00:00 29.2 14 Sudoeste 39 Oeste 0 -- -- 34
2019-06-09 15:00:00 28.6 16 Sudoeste 34 Sudoeste 0 -- -- 36
2019-06-09 14:00:00 27.8 16 Sudoeste 35 Sudoeste 0 -- -- 34
2019-06-09 13:00:00 27 13 Oeste 30 Sudoeste 0 -- -- 38
2019-06-09 12:00:00 26 13 Oeste 24 Noroeste 0 -- -- 41
2019-06-09 11:00:00 24.2 13 Oeste 24 Oeste 0 -- -- 46
2019-06-09 10:00:00 22.6 12 Oeste 21 Sudoeste 0 -- -- 46
2019-06-09 09:00:00 20.5 9 Oeste 19 Sudoeste 0 -- -- 55
2019-06-09 08:00:00 18.5 4 Noroeste 9 Noroeste 0 -- -- 59
2019-06-09 07:00:00 18 6 Oeste 15 Sudoeste 0 -- -- 56
2019-06-09 06:00:00 19.1 6 Oeste 13 Oeste 0 -- -- 50
2019-06-09 05:00:00 20.2 5 Oeste 21 Sudoeste 0 -- -- 47
2019-06-09 04:00:00 20.6 2 Norte 19 Sudoeste 0 -- -- 48
2019-06-09 03:00:00 21.7 8 Sudoeste 24 Sudoeste 0 -- -- 45
2019-06-09 02:00:00 22.8 12 Sudoeste 24 Sudoeste 0 -- -- 43
2019-06-09 01:00:00 23.7 12 Sudoeste 26 Sudoeste 0 -- -- 43
2019-06-09 00:00:00 24.4 10 Sudoeste 27 Sudoeste 0 -- -- 42
2019-06-08 23:00:00 24.9 10 Oeste 19 Oeste 0 -- -- 41
2019-06-08 22:00:00 26.2 8 Oeste 27 Sur 0 -- -- 38
2019-06-08 21:00:00 27.9 14 Sudoeste 30 Sudoeste 0 -- -- 33
2019-06-08 20:00:00 29.3 14 Sudoeste 31 Sudoeste 0 -- -- 30
2019-06-08 19:00:00 30.3 17 Sudoeste 32 Sudoeste 0 -- -- 29
2019-06-08 18:00:00 31.6 15 Sudoeste 29 Sudoeste 0 -- -- 28
2019-06-08 17:00:00 32.2 14 Oeste 28 Oeste 0 -- -- 27
2019-06-08 16:00:00 30.7 11 Oeste 24 Oeste 0 -- -- 28
2019-06-08 15:00:00 31.2 9 Noroeste 21 Oeste 0 -- -- 26
2019-06-08 14:00:00 30.3 11 Oeste 23 Noroeste 0 -- -- 25
2019-06-08 13:00:00 29.2 7 Oeste 18 Sudoeste 0 -- -- 23
2019-06-08 12:00:00 26.8 4 Sudeste 10 Sur 0 -- -- 24
2019-06-08 11:00:00 24.5 3 Este 8 Sudeste 0 -- -- 26
2019-06-08 10:00:00 19.9 2 Este 5 Este 0 -- -- 36
2019-06-08 09:00:00 14.7 3 Sudeste 5 Sudeste 0 -- -- 46
2019-06-08 08:00:00 11 0 Calma 3 Sudoeste 0 -- -- 49
2019-06-08 07:00:00 9.2 2 Sur 3 Sur 0 -- -- 54
2019-06-08 06:00:00 9.9 0 Calma 4 Sudoeste 0 -- -- 50
2019-06-08 05:00:00 10.8 0 Calma 0 Calma 0 -- -- 54
2019-06-08 04:00:00 11.6 0 Calma 3 Sudeste 0 -- -- 50
2019-06-08 03:00:00 13.1 0 Calma 3 Sudeste 0 -- -- 48
2019-06-08 02:00:00 15.2 0 Calma 5 Norte 0 -- -- 41
2019-06-08 01:00:00 18 3 Sudeste 19 Norte 0 -- -- 31
2019-06-08 00:00:00 21.6 8 Norte 21 Norte 0 -- -- 24
2019-06-07 23:00:00 21.9 9 Norte 22 Norte 0 -- -- 23
2019-06-07 22:00:00 23.3 5 Noroeste 17 Noroeste 0 -- -- 25
2019-06-07 21:00:00 26.3 10 Noroeste 18 Noroeste 0 -- -- 20
2019-06-07 20:00:00 28.4 7 Noroeste 16 Norte 0 -- -- 17
2019-06-07 19:00:00 29 5 Oeste 22 Noroeste 0 -- -- 18
2019-06-07 18:00:00 28.5 10 Sudoeste 28 Oeste 0 -- -- 19
2019-06-07 17:00:00 27.7 13 Sudoeste 23 Sudoeste 0 -- -- 20
2019-06-07 16:00:00 26.8 8 Oeste 19 Sudoeste 0 -- -- 24
2019-06-07 15:00:00 25.4 8 Sudeste 19 Sur 0 -- -- 30
2019-06-07 14:00:00 24.2 8 Sudoeste 29 Sudoeste 0 -- -- 32
2019-06-07 13:00:00 22.4 7 Sur 20 Oeste 0 -- -- 40
2019-06-07 12:00:00 21.6 6 Sudoeste 18 Sur 0 -- -- 41
2019-06-07 11:00:00 18.7 4 Este 14 Noroeste 0 -- -- 47
2019-06-07 10:00:00 16.9 3 Oeste 6 Oeste 0 -- -- 55
2019-06-07 09:00:00 15.8 3 Oeste 22 Noroeste 0 -- -- 60
2019-06-07 08:00:00 15.3 13 Noroeste 28 Noroeste 0 -- -- 65
2019-06-07 07:00:00 16.5 5 Sudoeste 10 Sudoeste 0 -- -- 72
2019-06-07 06:00:00 16.4 5 Sudoeste 11 Sudoeste 0 -- -- 70
2019-06-07 05:00:00 16.4 6 Sudoeste 18 Oeste 0 -- -- 70
2019-06-07 04:00:00 16.7 5 Oeste 15 Sudoeste 0 -- -- 68
2019-06-07 03:00:00 16.2 4 Oeste 12 Oeste 0 -- -- 66
2019-06-07 02:00:00 16.9 6 Oeste 21 Oeste 0 -- -- 56
2019-06-07 01:00:00 18.1 10 Oeste 22 Oeste 0 -- -- 55
2019-06-07 00:00:00 19 8 Noroeste 25 Sudoeste 0 -- -- 43
2019-06-06 23:00:00 20.5 14 Sudoeste 34 Sudoeste 0 -- -- 33
2019-06-06 22:00:00 22.1 11 Sudoeste 30 Sudoeste 0 -- -- 19
2019-06-06 21:00:00 24.6 17 Oeste 36 Oeste 0 -- -- 18
2019-06-06 20:00:00 26.9 15 Oeste 35 Oeste 0 -- -- 22
2019-06-06 19:00:00 28.2 15 Oeste 33 Sudoeste 0 -- -- 22
2019-06-06 18:00:00 28.7 16 Oeste 37 Sudoeste 0 -- -- 22
2019-06-06 17:00:00 28.4 13 Oeste 32 Oeste 0 -- -- 24
2019-06-06 16:00:00 28.2 15 Oeste 30 Oeste 0 -- -- 24
2019-06-06 15:00:00 27.5 10 Oeste 26 Sudoeste 0 -- -- 24
2019-06-06 14:00:00 26.7 11 Oeste 33 Oeste 0 -- -- 27
2019-06-06 13:00:00 24.9 5 Sudeste 16 Oeste 0 -- -- 31
2019-06-06 12:00:00 23.5 5 Sudeste 11 Sur 0 -- -- 32
2019-06-06 11:00:00 21.9 4 Este 11 Este 0 -- -- 36
2019-06-06 10:00:00 18.7 2 Este 8 Sudeste 0 -- -- 46
2019-06-06 09:00:00 15 0 Calma 6 Este 0 -- -- 59
2019-06-06 08:00:00 11.2 0 Calma 4 Sudeste 0 -- -- 75
2019-06-06 07:00:00 10.1 0 Calma 5 Este 0 -- -- 74
2019-06-06 06:00:00 11.2 3 Noroeste 8 Noroeste 0 -- -- 78
2019-06-06 05:00:00 11.3 2 Norte 5 Noroeste 0 -- -- 79
2019-06-06 04:00:00 11.8 0 Calma 6 Noroeste 0 -- -- 70
2019-06-06 03:00:00 12.2 3 Sudeste 8 Sudeste 0 -- -- 61
2019-06-06 02:00:00 12.7 0 Calma 2 Sudeste 0 -- -- 60
2019-06-06 01:00:00 14.2 0 Calma 3 Noroeste 0 -- -- 70
2019-06-06 00:00:00 15.7 0 Calma 2 Norte 0 -- -- 54
2019-06-05 23:00:00 17.9 0 Calma 4 Noroeste -- -- -- 48
2019-06-05 22:00:00 21 0 Calma 14 Noroeste 0 -- -- 41
2019-06-05 21:00:00 23.7 7 Noroeste 18 Noroeste 0 -- -- 27
2019-06-05 20:00:00 24.8 9 Noroeste 28 Noroeste 0 -- -- 27
2019-06-05 19:00:00 26.7 9 Noroeste 18 Sudoeste 0 -- -- 25
2019-06-05 18:00:00 25.2 9 Oeste 22 Oeste 0 -- -- 25
2019-06-05 17:00:00 25.4 13 Noroeste 27 Noroeste 0 -- -- 25
2019-06-05 16:00:00 25.1 15 Noroeste 29 Noroeste 0 -- -- 26
2019-06-05 15:00:00 25.2 12 Noroeste 45 Oeste 0 -- -- 27
2019-06-05 14:00:00 24.3 10 Oeste 31 Oeste 0 -- -- 28
2019-06-05 13:00:00 23.1 9 Oeste 23 Oeste 0 -- -- 33
2019-06-05 12:00:00 21.2 12 Oeste 23 Sudoeste 0 -- -- 39
2019-06-05 11:00:00 19.6 9 Sudoeste 23 Sudoeste 0 -- -- 44
2019-06-05 10:00:00 18.3 12 Sudoeste 22 Oeste 0 -- -- 49
2019-06-05 09:00:00 17.2 8 Oeste 21 Noroeste 0 -- -- 52
2019-06-05 08:00:00 15.8 6 Noroeste 20 Oeste 0 -- -- 55
2019-06-05 07:00:00 15.7 9 Noroeste 22 Noroeste 0 -- -- 52
2019-06-05 06:00:00 17.1 14 Noroeste 33 Noroeste 0 -- -- 46
2019-06-05 05:00:00 19.2 12 Noroeste 30 Noroeste 0 -- -- 48
2019-06-05 04:00:00 20.6 9 Oeste 22 Oeste 0 -- -- 55
2019-06-05 03:00:00 21.6 8 Oeste 17 Oeste 0 -- -- 52
2019-06-05 02:00:00 21.8 11 Oeste 25 Oeste 0 -- -- 54
2019-06-05 01:00:00 21.5 13 Sudoeste 36 Oeste 0 -- -- 63
2019-06-05 00:00:00 22.2 18 Sudoeste 40 Oeste 0 -- -- 62
2019-06-04 23:00:00 24.1 21 Oeste 40 Oeste 0 -- -- 54
2019-06-04 22:00:00 26.1 18 Oeste 39 Sudoeste 0 -- -- 46
2019-06-04 21:00:00 28.4 21 Sudoeste 37 Sudoeste 0 -- -- 41
2019-06-04 20:00:00 30.7 20 Oeste 35 Oeste 0 -- -- 34
2019-06-04 19:00:00 32.1 18 Oeste 42 Noroeste 0 -- -- 31
2019-06-04 18:00:00 32.9 15 Oeste 35 Oeste 0 -- -- 29
2019-06-04 17:00:00 32.8 18 Oeste 38 Sudoeste 0 -- -- 29
2019-06-04 16:00:00 32.5 19 Sudoeste 34 Sudoeste 0 -- -- 27
2019-06-04 15:00:00 31.5 15 Sudoeste 28 Oeste 0 -- -- 30
2019-06-04 14:00:00 30.4 15 Sudoeste 33 Oeste 0 -- -- 31
2019-06-04 13:00:00 29.4 13 Sudoeste 23 Sudoeste 0 -- -- 32
2019-06-04 12:00:00 27.8 10 Oeste 24 Sudoeste 0 -- -- 34
2019-06-04 11:00:00 25.9 8 Oeste 19 Oeste 0 -- -- 36
2019-06-04 10:00:00 24.3 2 Norte 6 Norte 0 -- -- 40
2019-06-04 09:00:00 19.5 0 Calma 4 Sudeste 0 -- -- 52
2019-06-04 08:00:00 15.4 0 Calma 3 Sur 0 -- -- 59
2019-06-04 07:00:00 14.5 0 Calma 2 Noroeste 0 -- -- 65
2019-06-04 06:00:00 15.9 0 Calma 4 Noroeste 0 -- -- 55
2019-06-04 05:00:00 17.8 0 Calma 6 Noroeste 0 -- -- 52
2019-06-04 04:00:00 19.9 5 Oeste 11 Oeste 0 -- -- 43
2019-06-04 03:00:00 22.4 6 Noroeste 17 Oeste 0 -- -- 38
2019-06-04 02:00:00 23.1 4 Noroeste 9 Norte 0 -- -- 37
2019-06-04 01:00:00 24.9 5 Noroeste 12 Noroeste 0 -- -- 34
2019-06-04 00:00:00 26.2 6 Sudoeste 22 Sudoeste 0 -- -- 30
2019-06-03 23:00:00 24.2 4 Noroeste 6 Noroeste 0 -- -- 34
2019-06-03 22:00:00 29.3 4 Noroeste 12 Oeste 0 -- -- 23
2019-06-03 21:00:00 33.3 4 Oeste 19 Oeste 0 -- -- 20
2019-06-03 20:00:00 35.7 9 Oeste 20 Oeste 0 -- -- 18
2019-06-03 19:00:00 36.6 8 Noroeste 28 Noroeste 0 -- -- 18
2019-06-03 18:00:00 37.2 9 Oeste 24 Sudoeste 0 -- -- 18
2019-06-03 17:00:00 37.1 14 Oeste 28 Sudoeste 0 -- -- 16
2019-06-03 16:00:00 36.7 6 Norte 15 Sudoeste 0 -- -- 18
2019-06-03 15:00:00 35.6 5 Sudoeste 16 Sur 0 -- -- 18
2019-06-03 14:00:00 33.7 4 Nordeste 10 Sudoeste 0 -- -- 24
2019-06-03 13:00:00 31.7 4 Noroeste 10 Sudoeste 0 -- -- 27
2019-06-03 12:00:00 29.3 3 Este 9 Este 0 -- -- 29
2019-06-03 11:00:00 27.4 2 Este 5 Este 0 -- -- 31
2019-06-03 10:00:00 24.3 3 Este 6 Este 0 -- -- 40
2019-06-03 09:00:00 19.7 0 Calma 4 Sudeste 0 -- -- 44
2019-06-03 08:00:00 15.6 0 Calma 2 Sudeste 0 -- -- 53
2019-06-03 07:00:00 14.8 0 Calma 2 Norte 0 -- -- 70
2019-06-03 06:00:00 15.9 0 Calma 0 Calma 0 -- -- 58
2019-06-03 05:00:00 17.4 0 Calma 2 Nordeste 0 -- -- 55
2019-06-03 04:00:00 18.8 0 Calma 5 Noroeste 0 -- -- 47
2019-06-03 03:00:00 21.2 0 Calma 8 Oeste 0 -- -- 34
2019-06-03 02:00:00 23.2 6 Noroeste 15 Noroeste 0 -- -- 29
2019-06-03 01:00:00 25.1 11 Oeste 23 Oeste 0 -- -- 26
2019-06-03 00:00:00 26.4 6 Oeste 18 Oeste 0 -- -- 25
2019-06-02 23:00:00 27.9 8 Noroeste 17 Oeste 0 -- -- 24
2019-06-02 22:00:00 30.2 7 Oeste 14 Oeste 0 -- -- 24
2019-06-02 21:00:00 33.6 4 Oeste 15 Sudoeste 0 -- -- 23
2019-06-02 20:00:00 36.7 3 Sur 10 Sudoeste 0 -- -- 18
2019-06-02 19:00:00 36.9 6 Sur 17 Sur 0 -- -- 18
2019-06-02 18:00:00 36.9 4 Este 15 Sur 0 -- -- 18
2019-06-02 17:00:00 36.8 6 Nordeste 15 Sudoeste 0 -- -- 18
2019-06-02 16:00:00 35.4 6 Noroeste 15 Sudoeste 0 -- -- 21
2019-06-02 15:00:00 34.2 4 Oeste 12 Noroeste 0 -- -- 21
2019-06-02 14:00:00 33.1 2 Norte 9 Sudeste 0 -- -- 24
2019-06-02 13:00:00 30.5 3 Sudeste 11 Sur 0 -- -- 27
2019-06-02 12:00:00 29.1 3 Norte 12 Sudoeste 0 -- -- 31
2019-06-02 11:00:00 27.2 4 Noroeste 10 Oeste 0 -- -- 33
2019-06-02 10:00:00 23.4 3 Este 6 Sudeste 0 -- -- 40
2019-06-02 09:00:00 18.8 2 Sudeste 4 Sudeste 0 -- -- 51
2019-06-02 08:00:00 14.4 0 Calma 3 Sudeste 0 -- -- 67
2019-06-02 07:00:00 13 0 Calma 3 Sudeste 0 -- -- 69
2019-06-02 06:00:00 13.9 2 Este 6 Noroeste 0 -- -- 73
2019-06-02 05:00:00 14.8 3 Noroeste 4 Norte 0 -- -- 74
2019-06-02 04:00:00 16.1 0 Calma 2 Noroeste 0 -- -- 71
2019-06-02 03:00:00 17.3 3 Noroeste 7 Noroeste 0 -- -- 54
2019-06-02 02:00:00 18.7 3 Noroeste 8 Oeste 0 -- -- 47
2019-06-02 01:00:00 21.3 0 Calma 9 Noroeste 0 -- -- 50
2019-06-02 00:00:00 23 6 Oeste 14 Oeste 0 -- -- 37
2019-06-01 23:00:00 25.4 7 Oeste 21 Oeste 0 -- -- 32
2019-06-01 22:00:00 27.7 7 Oeste 21 Oeste 0 -- -- 30
2019-06-01 21:00:00 30.8 12 Oeste 33 Oeste 0 -- -- 26
2019-06-01 20:00:00 36.4 4 Sudoeste 13 Sudoeste 0 -- -- 19
2019-06-01 19:00:00 36.6 8 Sudeste 16 Sudeste 0 -- -- 21
2019-06-01 18:00:00 37.1 5 Sur 19 Sudeste 0 -- -- 19
2019-06-01 17:00:00 36.1 9 Este 22 Sudeste 0 -- -- 20
2019-06-01 16:00:00 35.5 6 Sudeste 24 Este 0 -- -- 21
2019-06-01 15:00:00 34.5 8 Sudeste 22 Este 0 -- -- 22
2019-06-01 14:00:00 33.1 10 Sudeste 22 Este 0 -- -- 24
2019-06-01 13:00:00 31.4 7 Sudeste 22 Sudeste 0 -- -- 27
2019-06-01 12:00:00 29.7 8 Este 21 Este 0 -- -- 32
2019-06-01 11:00:00 27 7 Sudeste 16 Sudeste 0 -- -- 37
2019-06-01 10:00:00 23.3 2 Sudeste 6 Sudeste 0 -- -- 46
2019-06-01 09:00:00 18.8 0 Calma 4 Sur 0 -- -- 53
2019-06-01 08:00:00 14.3 0 Calma 3 Este 0 -- -- 65
2019-06-01 07:00:00 12.7 0 Calma 2 Este 0 -- -- 73
2019-06-01 06:00:00 13.7 0 Calma 4 Norte 0 -- -- 72
2019-06-01 05:00:00 14.7 0 Calma 4 Sur 0 -- -- 70
2019-06-01 04:00:00 15.8 2 Norte 5 Norte 0 -- -- 72
2019-06-01 03:00:00 17 0 Calma 4 Este 0 -- -- 61
2019-06-01 02:00:00 18.9 0 Calma 6 Noroeste 0 -- -- 56
2019-06-01 01:00:00 22 7 Noroeste 11 Noroeste 0 -- -- 41
2019-06-01 00:00:00 23.9 3 Noroeste 12 Oeste 0 -- -- 37
2019-05-31 23:00:00 25.8 7 Noroeste 17 Noroeste 0 -- -- 35
2019-05-31 22:00:00 27.8 7 Noroeste 29 Oeste 0 -- -- 33
2019-05-31 21:00:00 32.7 0 Calma 13 Sudeste 0 -- -- 26
2019-05-31 20:00:00 34.3 8 Sudeste 20 Este 0 -- -- 18
2019-05-31 19:00:00 35.2 8 Sudeste 22 Este 0 -- -- 18
2019-05-31 18:00:00 35.4 8 Este 23 Sudeste 0 -- -- 17
2019-05-31 17:00:00 35.3 7 Sudeste 28 Este 0 -- -- 17
2019-05-31 16:00:00 34.4 10 Sudeste 39 Este 0 -- -- 17
2019-05-31 15:00:00 33.4 13 Este 28 Sudeste 0 -- -- 18
2019-05-31 14:00:00 32.3 12 Este 30 Este 0 -- -- 22
2019-05-31 13:00:00 30.8 13 Este 29 Sudeste 0 -- -- 23
2019-05-31 12:00:00 29 13 Este 31 Este 0 -- -- 29
2019-05-31 11:00:00 27.3 10 Este 30 Nordeste 0 -- -- 30
2019-05-31 10:00:00 22.9 3 Sudeste 8 Sur 0 -- -- 48
2019-05-31 09:00:00 18.2 3 Nordeste 5 Este 0 -- -- 59
2019-05-31 08:00:00 14 0 Calma 3 Sur 0 -- -- 65
2019-05-31 07:00:00 12.6 0 Calma 3 Sur 0 -- -- 72
2019-05-31 06:00:00 13.5 2 Norte 5 Sur 0 -- -- 73
2019-05-31 05:00:00 14.7 2 Norte 6 Sudoeste 0 -- -- 74
2019-05-31 04:00:00 15.7 0 Calma 4 Sur 0 -- -- 70
2019-05-31 03:00:00 16.7 0 Calma 4 Este 0 -- -- 69
2019-05-31 02:00:00 18.2 0 Calma 4 Este 0 -- -- 60
2019-05-31 01:00:00 20.5 4 Oeste 10 Noroeste 0 -- -- 51
2019-05-31 00:00:00 22.2 2 Oeste 13 Oeste 0 -- -- 46
2019-05-30 23:00:00 23.7 8 Oeste 20 Oeste 0 -- -- 42
2019-05-30 22:00:00 25.8 9 Noroeste 30 Sudoeste 0 -- -- 37
2019-05-30 21:00:00 31.7 0 Calma 15 Este 0 -- -- 25
2019-05-30 20:00:00 33.6 6 Sudeste 17 Sudeste 0 -- -- 22
2019-05-30 19:00:00 33.7 10 Sudeste 21 Este 0 -- -- 21
2019-05-30 18:00:00 34 9 Sudeste 23 Este 0 -- -- 21
2019-05-30 17:00:00 33.8 8 Este 20 Este 0 -- -- 20
2019-05-30 16:00:00 33 8 Sudeste 23 Nordeste 0 -- -- 20
2019-05-30 15:00:00 32 8 Sudeste 21 Este 0 -- -- 23
2019-05-30 14:00:00 30.8 7 Este 17 Este 0 -- -- 27
2019-05-30 13:00:00 29.5 7 Este 19 Sudeste 0 -- -- 28
2019-05-30 12:00:00 27.7 8 Sudeste 22 Este 0 -- -- 34
2019-05-30 11:00:00 26 8 Este 19 Este 0 -- -- 36
2019-05-30 10:00:00 24.2 3 Este 8 Este 0 -- -- 40
2019-05-30 09:00:00 20.2 4 Noroeste 9 Oeste 0 -- -- 48
2019-05-30 08:00:00 15 2 Norte 4 Noroeste 0 -- -- 71
2019-05-30 07:00:00 13.8 4 Noroeste 6 Norte 0 -- -- 70
2019-05-30 06:00:00 14.5 4 Noroeste 10 Sur 0 -- -- 71
2019-05-30 05:00:00 15 3 Norte 12 Noroeste 0 -- -- 67
2019-05-30 04:00:00 15.7 6 Noroeste 9 Noroeste 0 -- -- 60
2019-05-30 03:00:00 16.6 0 Calma 5 Este 0 -- -- 68
2019-05-30 02:00:00 17.6 0 Calma 10 Sur 0 -- -- 55
2019-05-30 01:00:00 19.2 5 Norte 11 Sudeste 0 -- -- 48
2019-05-30 00:00:00 21.4 0 Calma 9 Nordeste 0 -- -- 50
2019-05-29 23:00:00 25 4 Norte 12 Nordeste 0 -- -- 29
2019-05-29 22:00:00 28.3 7 Norte 21 Nordeste 0 -- -- 23
2019-05-29 21:00:00 30.5 9 Nordeste 21 Nordeste 0 -- -- 20
2019-05-29 20:00:00 32.2 10 Nordeste 23 Nordeste 0 -- -- 18
2019-05-29 19:00:00 32.7 10 Nordeste 27 Este 0 -- -- 19
2019-05-29 18:00:00 32.9 12 Este 24 Sudeste 0 -- -- 19
2019-05-29 17:00:00 32.6 11 Nordeste 29 Este 0 -- -- 20
2019-05-29 16:00:00 32.1 10 Este 23 Sudeste 0 -- -- 20
2019-05-29 15:00:00 31.5 9 Este 22 Nordeste 0 -- -- 21
2019-05-29 14:00:00 30 11 Nordeste 26 Nordeste 0 -- -- 23
2019-05-29 13:00:00 28.8 11 Este 24 Sudeste 0 -- -- 23
2019-05-29 12:00:00 27.7 9 Este 28 Este 0 -- -- 25
2019-05-29 11:00:00 26.2 12 Este 30 Este 0 -- -- 27
2019-05-29 10:00:00 25 14 Este 30 Este 0 -- -- 28
2019-05-29 09:00:00 23.7 13 Este 24 Nordeste 0 -- -- 29
2019-05-29 08:00:00 21.6 5 Este 13 Este 0 -- -- 35
2019-05-29 07:00:00 21.2 5 Nordeste 22 Nordeste 0 -- -- 32
2019-05-29 06:00:00 21.1 5 Nordeste 15 Este 0 -- -- 33
2019-05-29 05:00:00 22.8 6 Este 31 Este 0 -- -- 32
2019-05-29 04:00:00 23.8 14 Este 34 Nordeste 0 -- -- 32
2019-05-29 03:00:00 24.9 14 Nordeste 29 Nordeste 0 -- -- 27
2019-05-29 02:00:00 23.6 14 Nordeste 30 Nordeste 0 -- -- 28
2019-05-29 01:00:00 21.1 0 Calma 6 Nordeste 0 -- -- 49
2019-05-29 00:00:00 22.7 2 Norte 9 Noroeste 0 -- -- 44
2019-05-28 23:00:00 25.5 5 Este 13 Este 0 -- -- 37
2019-05-28 22:00:00 28.9 5 Norte 8 Norte 0 -- -- 32
2019-05-28 21:00:00 33.5 6 Norte 20 Norte 0 -- -- 24
2019-05-28 20:00:00 35.3 9 Noroeste 24 Norte 0 -- -- 22
2019-05-28 19:00:00 35.3 4 Oeste 11 Este 0 -- -- 26
2019-05-28 18:00:00 35.8 6 Sudeste 22 Sudoeste 0 -- -- 23
2019-05-28 17:00:00 36.1 10 Sudoeste 20 Sudoeste 0 -- -- 23
2019-05-28 16:00:00 35.7 6 Sudoeste 19 Sur 0 -- -- 24
2019-05-28 15:00:00 34.9 5 Oeste 17 Sur 0 -- -- 24
2019-05-28 14:00:00 33.1 8 Sudeste 20 Sudeste 0 -- -- 27
2019-05-28 13:00:00 31.5 8 Este 20 Sudeste 0 -- -- 30
2019-05-28 12:00:00 29.9 5 Sudeste 14 Este 0 -- -- 36
2019-05-28 11:00:00 27.5 4 Sudeste 14 Sur 0 -- -- 41
2019-05-28 10:00:00 24.5 3 Este 6 Este 0 -- -- 48
2019-05-28 09:00:00 20 3 Sur 5 Sudeste 0 -- -- 59
2019-05-28 08:00:00 16.2 0 Calma 3 Noroeste 0 -- -- 71
2019-05-28 07:00:00 15.5 0 Calma 3 Sudeste 0 -- -- 76
2019-05-28 06:00:00 16.5 0 Calma 5 Noroeste 0 -- -- 68
2019-05-28 05:00:00 18.1 0 Calma 5 Noroeste 0 -- -- 65
2019-05-28 04:00:00 20.6 3 Noroeste 10 Oeste 0 -- -- 54
2019-05-28 03:00:00 22.2 6 Noroeste 12 Noroeste 0 -- -- 47
2019-05-28 02:00:00 24 9 Oeste 21 Sudoeste 0 -- -- 43
2019-05-28 01:00:00 25.5 7 Oeste 19 Oeste 0 -- -- 38
2019-05-28 00:00:00 27.6 8 Oeste 26 Oeste 0 -- -- 34
2019-05-27 23:00:00 29.5 15 Oeste 27 Sudoeste 0 -- -- 32
2019-05-27 22:00:00 29.8 5 Noroeste 15 Oeste 0 -- -- 29
2019-05-27 21:00:00 31.5 6 Oeste 17 Oeste 0 -- -- 27
2019-05-27 20:00:00 32.3 9 Oeste 23 Oeste 0 -- -- 27
2019-05-27 19:00:00 34.8 13 Sudoeste 29 Sudoeste 0 -- -- 23
2019-05-27 18:00:00 34 10 Oeste 30 Oeste 0 -- -- 23
2019-05-27 17:00:00 34.5 11 Sudoeste 26 Sur 0 -- -- 23
2019-05-27 16:00:00 34.3 6 Oeste 21 Sudoeste 0 -- -- 23
2019-05-27 15:00:00 33.2 6 Sudeste 16 Sudoeste 0 -- -- 24
2019-05-27 14:00:00 31.7 7 Sudoeste 17 Sudoeste 0 -- -- 25
2019-05-27 13:00:00 30 4 Norte 11 Sudoeste 0 -- -- 29
2019-05-27 12:00:00 27.5 3 Este 10 Este 0 -- -- 37
2019-05-27 11:00:00 24.6 5 Este 11 Este 0 -- -- 43
2019-05-27 10:00:00 21.3 0 Calma 7 Sudeste 0 -- -- 50
2019-05-27 09:00:00 17.4 2 Sudeste 4 Este 0 -- -- 58
2019-05-27 08:00:00 13.7 2 Norte 6 Norte 0 -- -- 75
2019-05-27 07:00:00 11.9 0 Calma 3 Noroeste 0 -- -- 70
2019-05-27 06:00:00 13.1 2 Norte 4 Norte 0 -- -- 76
2019-05-27 05:00:00 13.8 2 Sudeste 4 Sudoeste 0 -- -- 67
2019-05-27 04:00:00 15.6 2 Noroeste 8 Noroeste 0 -- -- 66
2019-05-27 03:00:00 15.3 3 Noroeste 8 Noroeste 0 -- -- 62
2019-05-27 02:00:00 15.7 3 Norte 3 Noroeste 0 -- -- 69
2019-05-27 01:00:00 17.2 0 Calma 8 Noroeste 0 -- -- 58
2019-05-27 00:00:00 19.2 5 Norte 6 Norte 0 -- -- 48
2019-05-26 23:00:00 22.4 3 Sur 11 Norte 0 -- -- 34
2019-05-26 22:00:00 24.3 6 Norte 9 Norte 0 -- -- 32
2019-05-26 21:00:00 29.5 4 Nordeste 10 Nordeste 0 -- -- 32
2019-05-26 20:00:00 31.5 7 Nordeste 28 Noroeste 0 -- -- 18
2019-05-26 19:00:00 32.3 4 Norte 20 Norte 0 -- -- 19
2019-05-26 18:00:00 31.6 7 Sudeste 17 Este 0 -- -- 25
2019-05-26 17:00:00 31.6 8 Sudeste 21 Sudoeste 0 -- -- 28
2019-05-26 16:00:00 30.7 8 Sudeste 17 Este 0 -- -- 29
2019-05-26 15:00:00 29.7 5 Sudeste 21 Sudeste 0 -- -- 30
2019-05-26 14:00:00 28.8 6 Oeste 17 Este 0 -- -- 32
2019-05-26 13:00:00 27.9 3 Sudoeste 15 Este 0 -- -- 33
2019-05-26 12:00:00 26.3 5 Sur 13 Este 0 -- -- 39
2019-05-26 11:00:00 24.3 3 Este 8 Sudeste 0 -- -- 48
2019-05-26 10:00:00 21.2 3 Sur 6 Este 0 -- -- 56
2019-05-26 09:00:00 17.2 2 Sudeste 5 Sudeste 0 -- -- 63
2019-05-26 08:00:00 13.6 0 Calma 4 Sur 0 -- -- 80
2019-05-26 07:00:00 12.6 2 Norte 4 Noroeste 0 -- -- 84
2019-05-26 06:00:00 13.4 0 Calma 4 Este 0 -- -- 68
2019-05-26 05:00:00 15.7 0 Calma 10 Noroeste 0 -- -- 67
2019-05-26 04:00:00 14.4 4 Noroeste 9 Sudoeste 0 -- -- 62
2019-05-26 03:00:00 14.5 0 Calma 4 Este 0 -- -- 64
2019-05-26 02:00:00 15.8 0 Calma 5 Sudeste 0 -- -- 55
2019-05-26 01:00:00 17.6 2 Sudeste 4 Nordeste 0 -- -- 49
2019-05-26 00:00:00 22.2 4 Norte 15 Nordeste 0 -- -- 40
2019-05-25 23:00:00 23.9 9 Norte 15 Norte 0 -- -- 31
2019-05-25 22:00:00 24.3 7 Norte 13 Nordeste 0 -- -- 35
2019-05-25 21:00:00 28 6 Nordeste 15 Nordeste 0 -- -- 27
2019-05-25 20:00:00 29.2 5 Norte 20 Nordeste 0 -- -- 25
2019-05-25 19:00:00 30 9 Nordeste 23 Norte 0 -- -- 24
2019-05-25 18:00:00 30.1 5 Este 18 Este 0 -- -- 24
2019-05-25 17:00:00 29.8 7 Sudeste 24 Nordeste 0 -- -- 26
2019-05-25 16:00:00 28.9 5 Este 26 Este 0 -- -- 29
2019-05-25 15:00:00 27.8 9 Nordeste 28 Sur 0 -- -- 31
2019-05-25 14:00:00 26.2 5 Este 27 Sudeste 0 -- -- 36
2019-05-25 13:00:00 24.9 10 Este 26 Este 0 -- -- 38
2019-05-25 12:00:00 23.9 12 Este 30 Este 0 -- -- 38
2019-05-25 11:00:00 23 9 Este 28 Nordeste 0 -- -- 42
2019-05-25 10:00:00 21.5 16 Este 32 Este 0 -- -- 47
2019-05-25 09:00:00 20.6 11 Nordeste 25 Este 0 -- -- 51
2019-05-25 08:00:00 15.1 4 Norte 6 Noroeste 0 -- -- 80
2019-05-25 07:00:00 13.9 4 Noroeste 6 Noroeste 0 -- -- 85
2019-05-25 06:00:00 14.5 0 Calma 4 Noroeste 0 -- -- 84
2019-05-25 05:00:00 15.2 4 Sudoeste 8 Nordeste 0 -- -- 70
2019-05-25 04:00:00 16.2 0 Calma 5 Norte 0 -- -- 66
2019-05-25 03:00:00 17.8 0 Calma 3 Norte 0 -- -- 64
2019-05-25 02:00:00 20.7 0 Calma 12 Este 0 -- -- 54
2019-05-25 01:00:00 23.3 9 Este 24 Nordeste 0 -- -- 48
2019-05-25 00:00:00 24.8 12 Este 27 Nordeste 0 -- -- 40
2019-05-24 23:00:00 25.5 7 Este 21 Nordeste 0 -- -- 38
2019-05-24 22:00:00 27.1 14 Nordeste 28 Nordeste 0 -- -- 35
2019-05-24 21:00:00 29.1 9 Norte 23 Nordeste 0 -- -- 28
2019-05-24 20:00:00 29.5 0 Calma 19 Noroeste 0 -- -- 31
2019-05-24 19:00:00 30.6 4 Sudeste 19 Oeste 0 -- -- 29
2019-05-24 18:00:00 31.4 4 Este 21 Este 0 -- -- 28
2019-05-24 17:00:00 30 7 Sudeste 20 Este 0 -- -- 31
2019-05-24 16:00:00 30.5 6 Sudeste 19 Oeste 0 -- -- 30
2019-05-24 15:00:00 30.2 6 Noroeste 15 Noroeste 0 -- -- 30
2019-05-24 14:00:00 28.7 5 Oeste 19 Oeste 0 -- -- 32
2019-05-24 13:00:00 27 8 Sudoeste 19 Sudoeste 0 -- -- 39
2019-05-24 12:00:00 25.3 8 Sudoeste 16 Oeste 0 -- -- 45
2019-05-24 11:00:00 24.4 3 Norte 8 Oeste 0 -- -- 50
2019-05-24 10:00:00 19.3 3 Noroeste 7 Noroeste 0 -- -- 63
2019-05-24 09:00:00 16.2 0 Calma 4 Norte 0 -- -- 76
2019-05-24 08:00:00 14.7 2 Noroeste 4 Noroeste 0 -- -- 81
2019-05-24 07:00:00 14.9 2 Norte 3 Noroeste 0 -- -- 79
2019-05-24 06:00:00 15.6 0 Calma 4 Noroeste 0 -- -- 71
2019-05-24 05:00:00 16.7 0 Calma 5 Noroeste 0 -- -- 70
2019-05-24 04:00:00 17.8 0 Calma 8 Oeste 0 -- -- 62
2019-05-24 03:00:00 20.4 7 Oeste 12 Oeste 0 -- -- 46
2019-05-24 02:00:00 22.2 6 Oeste 17 Sudoeste 0 -- -- 37
2019-05-24 01:00:00 20.6 2 Oeste 13 Oeste 0 -- -- 63
2019-05-24 00:00:00 22.9 4 Noroeste 12 Noroeste 0 -- -- 41
2019-05-23 23:00:00 25.1 5 Noroeste 9 Noroeste 0 -- -- 36
2019-05-23 22:00:00 26.2 5 Noroeste 9 Oeste 0 -- -- 32
2019-05-23 21:00:00 28.8 4 Oeste 19 Sudoeste 0 -- -- 28
2019-05-23 20:00:00 31 12 Sudoeste 23 Sudoeste 0 -- -- 25
2019-05-23 19:00:00 32.7 15 Sudoeste 27 Sudoeste 0 -- -- 24
2019-05-23 18:00:00 33.1 8 Sudoeste 24 Sudoeste 0 -- -- 25
2019-05-23 17:00:00 33.1 13 Oeste 24 Sudoeste 0 -- -- 23
2019-05-23 16:00:00 33.1 5 Noroeste 23 Oeste 0 -- -- 24
2019-05-23 15:00:00 31.8 5 Norte 14 Noroeste 0 -- -- 27
2019-05-23 14:00:00 30.5 8 Oeste 17 Oeste 0 -- -- 31
2019-05-23 13:00:00 29 6 Oeste 17 Oeste 0 -- -- 34
2019-05-23 12:00:00 27.1 4 Norte 8 Sur 0 -- -- 40
2019-05-23 11:00:00 25.1 4 Este 10 Sudoeste 0 -- -- 44
2019-05-23 10:00:00 22 3 Sudeste 6 Sudeste 0 -- -- 53
2019-05-23 09:00:00 16.6 0 Calma 3 Sur 0 -- -- 66
2019-05-23 08:00:00 13 0 Calma 2 Sudeste 0 -- -- 78
2019-05-23 07:00:00 12.6 0 Calma 2 Sur 0 -- -- 82
2019-05-23 06:00:00 13 0 Calma 2 Este 0 -- -- 73
2019-05-23 05:00:00 14.2 0 Calma 4 Noroeste 0 -- -- 77
2019-05-23 04:00:00 15.1 0 Calma 6 Noroeste 0 -- -- 67
2019-05-23 03:00:00 17.1 5 Noroeste 8 Oeste 0 -- -- 58
2019-05-23 02:00:00 18.4 2 Noroeste 9 Oeste 0 -- -- 61
2019-05-23 01:00:00 19 5 Oeste 10 Oeste 0 -- -- 51
2019-05-23 00:00:00 21.5 5 Noroeste 9 Noroeste 0 -- -- 43
2019-05-22 23:00:00 20 2 Sudeste 10 Sur 0 -- -- 48
2019-05-22 22:00:00 23.1 4 Noroeste 8 Noroeste 0 -- -- 36
2019-05-22 21:00:00 28.2 4 Oeste 12 Sudoeste 0 -- -- 28
2019-05-22 20:00:00 31.7 2 Oeste 14 Sudoeste 0 -- -- 24
2019-05-22 19:00:00 31 7 Oeste 21 Oeste 0 -- -- 23
2019-05-22 18:00:00 31.9 7 Noroeste 29 Oeste 0 -- -- 22
2019-05-22 17:00:00 31.7 10 Oeste 22 Oeste 0 -- -- 22
2019-05-22 16:00:00 31.2 7 Sudeste 20 Sudoeste 0 -- -- 24
2019-05-22 15:00:00 30.6 8 Sudeste 15 Sur 0 -- -- 29
2019-05-22 14:00:00 29.1 6 Norte 13 Sudoeste 0 -- -- 32
2019-05-22 13:00:00 26.9 4 Este 14 Sudoeste 0 -- -- 38
2019-05-22 12:00:00 25.5 5 Sudoeste 10 Sudoeste 0 -- -- 43
2019-05-22 11:00:00 24.2 2 Nordeste 5 Norte 0 -- -- 49
2019-05-22 10:00:00 20.9 3 Este 7 Sudeste 0 -- -- 59
2019-05-22 09:00:00 16.9 2 Sudeste 4 Sudeste 0 -- -- 69
2019-05-22 08:00:00 13.2 0 Calma 2 Nordeste 0 -- -- 86
2019-05-22 07:00:00 12 0 Calma 4 Este 0 -- -- 82
2019-05-22 06:00:00 12.6 3 Sudeste 5 Noroeste 0 -- -- 78
2019-05-22 05:00:00 14 0 Calma 4 Norte 0 -- -- 81
2019-05-22 04:00:00 15.4 0 Calma 4 Norte 0 -- -- 70
2019-05-22 03:00:00 17 3 Oeste 9 Sudoeste 0 -- -- 64
2019-05-22 02:00:00 18.9 2 Noroeste 17 Oeste 0 -- -- 56
2019-05-22 01:00:00 20.2 9 Oeste 22 Oeste 0 -- -- 54
2019-05-22 00:00:00 21 8 Oeste 16 Oeste 0 -- -- 53